Terminal Aerodrome Forecast
Issued by NWS

Home | Current Version | Previous Version | Text Only | Print | Product List | Glossary On
Versions: 1 2 3 4 5 6 7 8 9 10 11 12 13 14 15 16 17 18 19 20 21 22 23 24
000
FTAK31 PAFA 022326 AAA
TAFAGA
TAF AMD
PAGA 022326Z 0223/0324 20004KT P6SM SCT120
     FM030100 05005KT P6SM VCTS BKN050CB BKN100
      TEMPO 0302/0306 -TSRA SCT035 BKN050CB BKN100
     FM030600 05006KT P6SM -SHRA SCT035 BKN050 BKN100=

USA.gov is the U.S. government's official web portal to all federal, state and local government web resources and services.